Acme, Michigan
Current Conditions -  °F | °C
As of 1:53 PM on Friday 24 Oct 2014 (Local Time) from KTVC Reporting Station
Overcast Overcast  
Wind Chill: 54°   Ceiling: 1100
Heat Index: 54°   Visibility: 10mi
Dew Point: 48°   Wind: 6mph
Humidity: 80%   Direction: 250°WSW
Pressure: 29.97"   Gusts: NA
Location:  44.77°N, 85.5°W
Report Text: KTVC 241753Z 25005KT 10SM OVC011 12/09 A2997 RMK AO2 SLP150 60000 T01220089 10122 20100 56014
Loading
Personal Weather Stations






























Interactive Weather Map
Tropical Storm Tracking
New forecast layout! Learn more

10-Day Weather Forecast

Advertisements
Track Severe Weather on mobile